Terminal Aerodrome Forecast
Issued by NWS Pueblo, CO

Home | Current Version | Previous Version | Text Only | Print | Product List | Glossary On
Versions: 1 2 3 4 5 6 7 8 9 10 11 12 13 14 15
000
FTUS45 KPUB 232332
TAFALS
TAF
KALS 232332Z 2400/2424 26015KT P6SM VCSH SCT060 SCT100
      TEMPO 2400/2404 -TSRA BKN060CB
     FM240400 30015KT P6SM VCSH SCT070 BKN100
     FM240700 36010KT P6SM SCT060 BKN080
     FM241900 30015KT P6SM -TSRA BKN040CB=

USA.gov is the U.S. government's official web portal to all federal, state and local government web resources and services.